Archival Weather

Heathrow

Heathrow, United Kingdom (EGLL)

Report from: Thursday, June 23, 2022 4:20 PM BST
Current time: Tuesday, August 16, 2022 9:15 AM BST

Current weather
Weather history
Weather forecast

Temperature25.0°C (77.0°F)
Dew point11.0°C (51.8°F)
Winds 4 kts (2.1 m/s, 4.6 mph) Vrb
Winds variableWinds variable from North-Northeast (30°) to East-Southeast (120°)
Visibility6.2 mi. (10 km)
Clouds Sky clear
Altimeter29.74 in.Hg (1007 mB)
Relative humidity41 %
Density altitude1,554 ft. (474 m)
Remarks Fully automated report
No clouds detected
Flight conditions Visual Meteorological Conditions
Raw dataEGLL 231520Z AUTO 07004KT 030V120 9999 NCD 25/11 Q1007
An error has occurred. This application may no longer respond until reloaded. Reload 🗙